Time;durP1;ratioP1;P1;durP2;ratioP2;P2;SDS_P1;SDS_P2;PMS_P1;PMS_P2;Temp;Humidity;BMP_temperature;BMP_pressure;BME280_temperature;BME280_humidity;BME280_pressure;Samples;Min_cycle;Max_cycle;Signal;HPM_P1;HPM_P2
2022/10/09 00:00:49;;;;;;;6.17;1.60;;;6.10;99.90;;;;;;6182739;23;20619;-80
2022/10/09 00:03:16;;;;;;;3.47;1.43;;;6.00;99.90;;;;;;6209306;23;20177;-78
2022/10/09 00:05:45;;;;;;;4.77;1.60;;;6.10;99.90;;;;;;6209475;23;20226;-79
2022/10/09 00:08:11;;;;;;;3.53;1.60;;;6.10;99.90;;;;;;6209412;23;20160;-79
2022/10/09 00:10:42;;;;;;;3.27;1.33;;;6.10;99.90;;;;;;6183529;23;20186;-79
2022/10/09 00:13:07;;;;;;;5.40;1.57;;;6.00;99.90;;;;;;6181293;23;20190;-79
2022/10/09 00:15:40;;;;;;;3.60;1.33;;;6.00;99.90;;;;;;6209990;23;20200;-79
2022/10/09 00:18:07;;;;;;;4.90;1.40;;;5.90;99.90;;;;;;6210220;23;20178;-79
2022/10/09 00:20:42;;;;;;;5.30;1.20;;;6.00;99.90;;;;;;6210359;23;20161;-79
2022/10/09 00:23:08;;;;;;;3.67;1.30;;;6.10;99.90;;;;;;6182822;23;20639;-79
2022/10/09 00:25:37;;;;;;;3.00;1.30;;;6.10;99.90;;;;;;6183282;23;20589;-79
2022/10/09 00:28:03;;;;;;;2.97;1.47;;;5.90;99.90;;;;;;6210367;23;20155;-79
2022/10/09 00:30:29;;;;;;;3.97;1.40;;;6.00;99.90;;;;;;6209680;23;20213;-77
2022/10/09 00:32:55;;;;;;;4.20;1.60;;;5.90;99.90;;;;;;6210294;23;20174;-79
2022/10/09 00:35:21;;;;;;;4.13;1.50;;;5.80;99.90;;;;;;6183681;23;20158;-80
2022/10/09 00:37:47;;;;;;;3.67;1.60;;;5.70;99.90;;;;;;6210249;23;20159;-79
2022/10/09 00:40:14;;;;;;;3.77;1.83;;;5.60;99.90;;;;;;6211590;23;20224;-79
2022/10/09 00:42:40;;;;;;;3.83;1.77;;;5.60;99.90;;;;;;6212045;23;20174;-79
2022/10/09 00:45:06;;;;;;;4.20;1.63;;;5.60;99.90;;;;;;6211794;23;20154;-79
2022/10/09 00:47:46;;;;;;;3.57;1.70;;;5.50;99.90;;;;;;6185631;23;20820;-79
2022/10/09 00:50:21;;;;;;;5.73;1.60;;;5.40;1.00;;;;;;6185112;23;20519;-79
2022/10/09 00:52:50;;;;;;;3.03;1.60;;;5.40;1.00;;;;;;6212921;23;20739;-78
2022/10/09 00:55:16;;;;;;;2.57;1.50;;;5.50;1.00;;;;;;6211870;23;20157;-78
2022/10/09 00:57:42;;;;;;;5.30;2.00;;;5.50;1.00;;;;;;6185213;23;20162;-80
2022/10/09 01:00:10;;;;;;;2.83;1.43;;;5.40;1.00;;;;;;6212008;23;20142;-79
2022/10/09 01:02:37;;;;;;;5.87;1.47;;;5.30;1.00;;;;;;6185359;23;20182;-79
2022/10/09 01:05:04;;;;;;;4.10;1.63;;;5.40;1.00;;;;;;6185957;23;20166;-79
2022/10/09 01:08:29;;;;;;;6.37;1.70;;;5.50;1.00;;;;;;6212636;23;20208;-79
2022/10/09 01:11:22;;;;;;;4.27;1.40;;;5.60;1.00;;;;;;6111054;23;20221;-80
2022/10/09 01:14:32;;;;;;;4.07;1.40;;;5.40;1.00;;;;;;6211865;23;20182;-79
2022/10/09 01:17:05;;;;;;;4.10;1.30;;;5.30;1.00;;;;;;6184774;23;20159;-78
2022/10/09 01:19:42;;;;;;;3.43;1.40;;;5.30;1.00;;;;;;6185827;23;20162;-76
2022/10/09 01:22:50;;;;;;;3.93;1.67;;;5.20;1.00;;;;;;6212727;23;20535;-79
2022/10/09 01:25:28;;;;;;;3.03;1.70;;;5.20;1.00;;;;;;6185358;23;20177;-78
2022/10/09 01:27:54;;;;;;;5.07;1.57;;;5.40;3.40;;;;;;6212696;23;20145;-79
2022/10/09 01:30:20;;;;;;;4.00;1.67;;;5.40;1.00;;;;;;6185936;23;20209;-79
2022/10/09 01:32:49;;;;;;;5.53;2.27;;;5.30;1.00;;;;;;6185776;23;20240;-78
2022/10/09 01:35:15;;;;;;;4.70;1.57;;;5.30;28.90;;;;;;6212091;23;20212;-79
2022/10/09 01:37:44;;;;;;;4.07;1.70;;;5.40;75.30;;;;;;6185348;23;20512;-79
2022/10/09 01:40:13;;;;;;;3.57;1.70;;;5.30;1.00;;;;;;6211011;23;20503;-79
2022/10/09 01:42:39;;;;;;;5.90;1.60;;;5.30;51.70;;;;;;6208567;23;20405;-78
2022/10/09 01:45:05;;;;;;;5.77;1.50;;;5.40;99.90;;;;;;6211299;23;20150;-80
2022/10/09 01:47:31;;;;;;;7.63;1.97;;;5.40;56.80;;;;;;6185331;23;20602;-79
2022/10/09 01:50:13;;;;;;;3.23;1.67;;;5.40;9.90;;;;;;6211865;23;20232;-78
2022/10/09 01:52:48;;;;;;;1.80;1.47;;;5.20;1.00;;;;;;6184952;23;20186;-79
2022/10/09 01:55:32;;;;;;;3.43;1.63;;;5.00;1.00;;;;;;6212720;23;20138;-79
2022/10/09 01:58:16;;;;;;;4.27;1.77;;;4.90;11.00;;;;;;6185138;23;20151;-79
2022/10/09 02:00:48;;;;;;;5.10;1.80;;;4.90;99.90;;;;;;6186209;23;20222;-79
2022/10/09 02:03:15;;;;;;;4.13;1.43;;;5.10;1.00;;;;;;6185371;23;20182;-80
2022/10/09 02:05:44;;;;;;;3.17;1.60;;;5.10;99.90;;;;;;6212041;23;20770;-80
2022/10/09 02:08:14;;;;;;;4.23;1.80;;;5.10;99.90;;;;;;6212543;23;20502;-80
2022/10/09 02:10:41;;;;;;;6.13;1.70;;;5.10;99.90;;;;;;6212254;23;20668;-79
2022/10/09 02:13:07;;;;;;;4.13;1.70;;;5.10;93.30;;;;;;6185319;23;20653;-80
2022/10/09 02:15:54;;;;;;;2.57;1.50;;;5.20;99.90;;;;;;6185765;23;20233;-79
2022/10/09 02:18:32;;;;;;;5.33;1.63;;;5.00;1.00;;;;;;6212456;23;20290;-78
2022/10/09 02:21:08;;;;;;;6.53;1.77;;;5.20;39.60;;;;;;6212728;23;20181;-80
2022/10/09 02:23:36;;;;;;;2.70;1.80;;;5.30;18.80;;;;;;6185345;23;20188;-79
2022/10/09 02:26:02;;;;;;;3.43;1.80;;;5.10;1.00;;;;;;6212187;23;20154;-76
2022/10/09 02:28:27;;;;;;;5.17;1.83;;;5.00;1.00;;;;;;6185729;23;20224;-80
2022/10/09 02:31:04;;;;;;;4.43;1.77;;;5.00;50.50;;;;;;6185429;23;20199;-79
2022/10/09 02:33:32;;;;;;;4.77;1.60;;;5.00;99.90;;;;;;6184860;23;20178;-81
2022/10/09 02:35:58;;;;;;;3.50;1.90;;;5.00;99.90;;;;;;6184181;23;20167;-80
2022/10/09 02:38:24;;;;;;;4.53;1.77;;;4.90;55.60;;;;;;6184668;23;20189;-80
2022/10/09 02:40:49;;;;;;;5.40;1.93;;;4.80;99.90;;;;;;6209849;23;20229;-80
2022/10/09 02:43:15;;;;;;;4.03;2.00;;;5.00;1.00;;;;;;6209198;23;20178;-79
2022/10/09 02:45:42;;;;;;;4.27;2.07;;;4.80;99.90;;;;;;6211183;23;20222;-80
2022/10/09 02:48:07;;;;;;;8.37;2.00;;;4.80;99.90;;;;;;6186655;23;20204;-79
2022/10/09 02:50:34;;;;;;;4.30;1.80;;;4.70;99.90;;;;;;6186343;23;20178;-80
2022/10/09 02:52:59;;;;;;;4.30;1.77;;;4.60;99.90;;;;;;6186277;23;20232;-79
2022/10/09 02:55:25;;;;;;;7.03;2.00;;;4.50;99.90;;;;;;6213219;23;20210;-78
2022/10/09 02:57:51;;;;;;;3.07;1.67;;;4.40;99.90;;;;;;6212848;23;20157;-80
2022/10/09 03:00:16;;;;;;;3.10;1.50;;;4.40;99.90;;;;;;6213184;23;20216;-77
2022/10/09 03:02:42;;;;;;;4.80;1.80;;;4.40;1.00;;;;;;6213365;23;20174;-79
2022/10/09 03:05:09;;;;;;;2.77;1.63;;;4.30;99.90;;;;;;6214251;23;20162;-78
2022/10/09 03:07:34;;;;;;;3.73;1.90;;;4.30;99.90;;;;;;6214250;23;20151;-77
2022/10/09 03:10:00;;;;;;;4.10;1.93;;;4.20;99.90;;;;;;6187309;23;20192;-79
2022/10/09 03:12:26;;;;;;;3.33;1.87;;;4.10;99.90;;;;;;6204054;23;20201;-78
2022/10/09 03:14:51;;;;;;;2.60;1.70;;;4.10;99.90;;;;;;6213770;23;20929;-79
2022/10/09 03:17:17;;;;;;;5.73;1.90;;;4.10;99.90;;;;;;6213709;23;20150;-79
2022/10/09 03:19:42;;;;;;;3.30;2.00;;;4.10;1.00;;;;;;6213959;23;20157;-79
2022/10/09 03:22:08;;;;;;;5.70;2.30;;;4.30;1.00;;;;;;6214463;23;20495;-78
2022/10/09 03:24:34;;;;;;;3.33;1.70;;;4.20;1.00;;;;;;6211751;23;20158;-79
2022/10/09 03:26:59;;;;;;;4.93;1.90;;;4.20;1.00;;;;;;6213322;23;20157;-79
2022/10/09 03:29:25;;;;;;;1.83;1.40;;;4.20;1.00;;;;;;6211569;23;20489;-81
2022/10/09 03:31:50;;;;;;;3.57;1.80;;;4.20;1.00;;;;;;6212061;23;20190;-79
2022/10/09 03:34:16;;;;;;;4.90;1.80;;;4.10;99.90;;;;;;6213663;23;20224;-79
2022/10/09 03:36:42;;;;;;;4.93;2.07;;;4.10;99.90;;;;;;6213327;23;20213;-78
2022/10/09 03:39:08;;;;;;;4.40;1.80;;;4.10;99.90;;;;;;6213209;23;20146;-79
2022/10/09 03:41:33;;;;;;;5.97;2.00;;;4.20;1.00;;;;;;6213178;23;20161;-78
2022/10/09 03:43:59;;;;;;;3.53;1.67;;;4.20;1.00;;;;;;6212976;23;20170;-79
2022/10/09 03:46:24;;;;;;;4.93;2.03;;;4.20;1.00;;;;;;6212730;23;20200;-77
2022/10/09 03:48:50;;;;;;;4.93;2.00;;;4.60;99.90;;;;;;6213434;23;20160;-79
2022/10/09 03:51:16;;;;;;;4.27;2.10;;;4.50;1.00;;;;;;6213902;23;20188;-78
2022/10/09 03:53:41;;;;;;;6.07;1.80;;;4.40;1.00;;;;;;6212181;23;20183;-78
2022/10/09 03:56:07;;;;;;;6.17;2.13;;;4.30;99.90;;;;;;6213513;23;20292;-80
2022/10/09 03:58:32;;;;;;;4.87;2.13;;;4.30;1.00;;;;;;6214824;23;20150;-79
2022/10/09 04:00:58;;;;;;;6.30;2.50;;;4.30;1.00;;;;;;6214416;23;20378;-78
2022/10/09 04:03:26;;;;;;;5.80;2.37;;;4.20;1.00;;;;;;6211330;23;20213;-81
2022/10/09 04:05:51;;;;;;;4.90;2.23;;;4.30;99.90;;;;;;6211688;23;20169;-79
2022/10/09 04:08:17;;;;;;;6.97;2.50;;;4.20;74.60;;;;;;6211033;23;20504;-79
2022/10/09 04:10:42;;;;;;;6.03;2.50;;;4.10;99.90;;;;;;6213099;23;20177;-79
2022/10/09 04:13:08;;;;;;;7.60;2.70;;;4.30;99.90;;;;;;6186310;23;20178;-80
2022/10/09 04:15:34;;;;;;;6.47;2.60;;;4.40;99.90;;;;;;6216205;23;20768;-79
2022/10/09 04:18:00;;;;;;;7.60;2.90;;;4.60;99.90;;;;;;6188125;23;20209;-79
2022/10/09 04:20:25;;;;;;;4.87;2.50;;;4.80;1.00;;;;;;6216579;23;20160;-77
2022/10/09 04:22:51;;;;;;;8.07;2.87;;;4.80;77.90;;;;;;6188570;23;20192;-78
2022/10/09 04:25:16;;;;;;;3.23;2.33;;;4.80;1.00;;;;;;6215262;23;20185;-79
2022/10/09 04:27:42;;;;;;;6.97;2.43;;;5.00;1.00;;;;;;6215457;23;20598;-79
2022/10/09 04:30:09;;;;;;;7.60;3.47;;;5.10;99.90;;;;;;6216396;23;20191;-78
2022/10/09 04:32:35;;;;;;;4.20;2.70;;;5.00;99.90;;;;;;6216232;23;20222;-80
2022/10/09 04:35:00;;;;;;;9.03;2.90;;;4.90;99.90;;;;;;6215582;23;20430;-79
2022/10/09 04:37:26;;;;;;;5.90;2.73;;;4.90;99.90;;;;;;6215834;23;20158;-78
2022/10/09 04:39:51;;;;;;;7.13;2.90;;;5.10;1.00;;;;;;6188854;23;20189;-79
2022/10/09 04:42:17;;;;;;;7.80;2.97;;;5.20;99.90;;;;;;6189384;23;20204;-80
2022/10/09 04:44:42;;;;;;;7.90;3.10;;;5.10;99.90;;;;;;6188382;23;20162;-79
2022/10/09 04:47:08;;;;;;;5.63;3.10;;;4.80;98.00;;;;;;6215687;23;20159;-80
2022/10/09 04:49:34;;;;;;;8.33;2.83;;;4.80;99.90;;;;;;6214961;23;20154;-79
2022/10/09 04:51:59;;;;;;;8.07;3.03;;;4.70;99.90;;;;;;6188072;23;20201;-79
2022/10/09 04:54:25;;;;;;;5.23;3.20;;;4.60;99.90;;;;;;6214745;23;20154;-79
2022/10/09 04:56:50;;;;;;;7.37;2.90;;;4.50;1.00;;;;;;6215633;23;20624;-79
2022/10/09 04:59:16;;;;;;;6.00;2.40;;;4.40;1.00;;;;;;6188624;23;20220;-79
2022/10/09 05:01:41;;;;;;;5.47;2.70;;;4.40;99.90;;;;;;6214801;23;20165;-79
2022/10/09 05:04:07;;;;;;;4.97;3.00;;;4.60;1.00;;;;;;6188088;23;20181;-79
2022/10/09 05:06:33;;;;;;;5.43;2.50;;;4.60;99.90;;;;;;6215237;23;20562;-79
2022/10/09 05:08:59;;;;;;;8.00;2.80;;;4.50;1.00;;;;;;6188302;23;20170;-80
2022/10/09 05:11:24;;;;;;;7.07;3.27;;;4.50;99.90;;;;;;6214379;23;20182;-80
2022/10/09 05:13:56;;;;;;;10.57;3.47;;;4.50;99.90;;;;;;6188523;23;20587;-80
2022/10/09 05:16:27;;;;;;;8.07;3.03;;;4.60;1.00;;;;;;6188197;23;20165;-79
2022/10/09 05:18:55;;;;;;;8.03;3.40;;;4.50;1.00;;;;;;6214908;23;20204;-79
2022/10/09 05:21:22;;;;;;;10.07;3.70;;;4.70;99.90;;;;;;6187995;23;20192;-79
2022/10/09 05:23:48;;;;;;;5.53;3.33;;;4.60;99.90;;;;;;6214483;23;20178;-78
2022/10/09 05:26:17;;;;;;;8.00;3.43;;;4.70;1.00;;;;;;6213709;23;20170;-79
2022/10/09 05:28:43;;;;;;;6.23;3.53;;;4.60;99.90;;;;;;6191718;23;20154;-79
2022/10/09 05:31:11;;;;;;;4.97;3.13;;;4.40;99.90;;;;;;6220011;23;20185;-81
2022/10/09 05:33:36;;;;;;;7.13;3.10;;;4.40;1.00;;;;;;6219480;23;20649;-81
2022/10/09 05:36:04;;;;;;;9.07;3.07;;;4.40;1.00;;;;;;6192000;23;20162;-81
2022/10/09 05:38:31;;;;;;;5.33;2.90;;;4.30;98.80;;;;;;6217693;23;20261;-81
2022/10/09 05:40:59;;;;;;;7.37;3.23;;;4.30;99.90;;;;;;6189114;23;20155;-79
2022/10/09 05:43:33;;;;;;;4.53;2.67;;;4.20;99.90;;;;;;6186755;23;20182;-78
2022/10/09 05:46:05;;;;;;;6.17;2.70;;;4.20;1.00;;;;;;6214187;23;20211;-79
2022/10/09 05:48:30;;;;;;;5.53;2.70;;;4.20;26.00;;;;;;6192808;23;20158;-80
2022/10/09 05:51:27;;;;;;;5.23;2.57;;;4.20;99.90;;;;;;6195296;23;20186;-81
2022/10/09 05:53:53;;;;;;;8.80;3.47;;;4.10;99.90;;;;;;6171198;23;20178;-79
2022/10/09 05:56:23;;;;;;;9.10;3.27;;;4.40;1.00;;;;;;6221941;23;20180;-80
2022/10/09 05:58:55;;;;;;;6.77;3.10;;;4.50;1.00;;;;;;6222685;23;20222;-80
2022/10/09 06:01:22;;;;;;;6.43;2.80;;;4.70;1.00;;;;;;6221994;23;20155;-79
2022/10/09 06:03:50;;;;;;;12.20;3.97;;;4.70;99.90;;;;;;6222694;23;20201;-80
2022/10/09 06:06:16;;;;;;;6.03;3.10;;;4.60;1.00;;;;;;6195377;23;20165;-81
2022/10/09 06:08:42;;;;;;;6.20;3.13;;;4.80;87.20;;;;;;6195567;23;20162;-78
2022/10/09 06:11:10;;;;;;;7.53;3.37;;;4.60;1.00;;;;;;6222443;23;20242;-80
2022/10/09 06:13:35;;;;;;;7.83;3.27;;;4.60;1.00;;;;;;6195172;23;20482;-78
2022/10/09 06:16:01;;;;;;;7.13;2.70;;;4.60;1.00;;;;;;6221983;23;20155;-78
2022/10/09 06:18:27;;;;;;;5.27;3.00;;;4.50;1.00;;;;;;6221298;23;20154;-80
2022/10/09 06:20:57;;;;;;;5.70;2.80;;;4.50;1.00;;;;;;6222012;23;20177;-80
2022/10/09 06:23:24;;;;;;;6.03;3.20;;;4.30;99.90;;;;;;6221354;23;20189;-78
2022/10/09 06:25:58;;;;;;;6.50;3.50;;;4.30;1.00;;;;;;6195174;23;20166;-80
2022/10/09 06:28:24;;;;;;;6.60;3.20;;;4.20;1.00;;;;;;6194729;23;20959;-78
2022/10/09 06:30:50;;;;;;;5.97;3.33;;;4.20;1.00;;;;;;6194319;23;20186;-81
2022/10/09 06:33:16;;;;;;;4.67;3.23;;;4.30;26.90;;;;;;6195363;23;20182;-80
2022/10/09 06:35:41;;;;;;;9.97;4.10;;;4.40;93.00;;;;;;6222159;23;20154;-81
2022/10/09 06:38:07;;;;;;;6.90;3.17;;;4.70;99.90;;;;;;6220774;23;20588;-82
2022/10/09 06:40:37;;;;;;;6.63;3.60;;;4.60;99.90;;;;;;6221283;23;20150;-79
2022/10/09 06:43:03;;;;;;;8.83;3.07;;;4.80;1.00;;;;;;6220662;23;20198;-78
2022/10/09 06:45:29;;;;;;;6.90;3.27;;;4.70;1.00;;;;;;6220894;23;20194;-81
2022/10/09 06:47:55;;;;;;;7.50;3.20;;;4.70;1.00;;;;;;6193411;23;20210;-76
2022/10/09 06:50:20;;;;;;;7.23;3.50;;;4.70;1.00;;;;;;6192820;23;20213;-81
2022/10/09 06:52:46;;;;;;;4.87;3.37;;;4.80;47.80;;;;;;6220691;23;20205;-80
2022/10/09 06:55:12;;;;;;;5.87;3.03;;;5.10;99.90;;;;;;6193596;23;20159;-81
2022/10/09 06:57:37;;;;;;;6.57;3.23;;;5.30;1.00;;;;;;6220104;23;20161;-77
2022/10/09 07:00:04;;;;;;;4.03;2.67;;;5.30;99.90;;;;;;6221028;23;20164;-78
2022/10/09 07:02:31;;;;;;;6.93;3.20;;;5.40;1.00;;;;;;6221214;23;20175;-78
2022/10/09 07:04:57;;;;;;;6.83;3.33;;;5.50;99.90;;;;;;6221183;23;20150;-77
2022/10/09 07:07:23;;;;;;;5.27;3.10;;;5.60;99.90;;;;;;6220247;23;20273;-81
2022/10/09 07:09:48;;;;;;;3.80;2.50;;;5.80;99.90;;;;;;6191992;23;20629;-77
2022/10/09 07:12:14;;;;;;;5.00;2.70;;;6.00;66.60;;;;;;6220785;23;20221;-80
2022/10/09 07:14:40;;;;;;;8.47;3.50;;;6.00;1.00;;;;;;6221769;23;20150;-78
2022/10/09 07:17:05;;;;;;;5.80;3.03;;;6.20;1.00;;;;;;6221849;23;20170;-80
2022/10/09 07:19:31;;;;;;;6.33;3.10;;;6.20;1.00;;;;;;6194813;23;20165;-81
2022/10/09 07:21:56;;;;;;;5.77;2.80;;;6.40;1.00;;;;;;6221312;23;20169;-78
2022/10/09 07:24:24;;;;;;;7.13;3.17;;;6.50;1.00;;;;;;6194551;23;20185;-80
2022/10/09 07:26:50;;;;;;;5.20;2.60;;;6.60;1.00;;;;;;6219010;23;20222;-79
2022/10/09 07:29:18;;;;;;;6.53;2.60;;;6.70;1.00;;;;;;6220774;23;20170;-78
2022/10/09 07:31:44;;;;;;;6.47;3.13;;;6.70;1.00;;;;;;6219434;23;20634;-79
2022/10/09 07:34:09;;;;;;;6.40;3.10;;;6.90;1.00;;;;;;6220458;23;20186;-79
2022/10/09 07:36:35;;;;;;;5.80;2.90;;;7.00;1.00;;;;;;6220976;23;20157;-80
2022/10/09 07:39:02;;;;;;;4.63;3.00;;;7.20;1.00;;;;;;6221389;23;20210;-78
2022/10/09 07:41:28;;;;;;;7.53;2.57;;;7.30;1.00;;;;;;6219551;23;20636;-81
2022/10/09 07:43:54;;;;;;;5.17;2.43;;;7.40;1.00;;;;;;6218505;23;20174;-80
2022/10/09 07:46:22;;;;;;;5.57;2.40;;;7.70;1.00;;;;;;6216540;23;20507;-79
2022/10/09 07:48:48;;;;;;;5.10;2.07;;;7.80;1.00;;;;;;6187655;23;20162;-78
2022/10/09 07:51:23;;;;;;;7.03;2.40;;;7.90;1.00;;;;;;6215798;23;20170;-81
2022/10/09 07:53:49;;;;;;;3.73;1.50;;;8.10;1.00;;;;;;6206983;23;20253;-77
2022/10/09 07:56:20;;;;;;;5.07;1.73;;;8.30;1.00;;;;;;6208301;23;20210;-78
2022/10/09 07:59:13;;;;;;;4.97;1.90;;;8.40;99.90;;;;;;6208327;23;20139;-81
2022/10/09 08:01:39;;;;;;;6.97;3.00;;;8.60;99.90;;;;;;6165326;23;20173;-80
2022/10/09 08:04:05;;;;;;;9.10;2.60;;;8.90;99.90;;;;;;6205596;23;20178;-80
2022/10/09 08:06:32;;;;;;;5.20;2.37;;;9.00;99.90;;;;;;6179737;23;20334;-79
2022/10/09 08:08:59;;;;;;;7.73;3.43;;;9.10;99.90;;;;;;6209798;23;20165;-80
2022/10/09 08:11:26;;;;;;;7.03;2.50;;;9.20;99.90;;;;;;6208019;23;20190;-80
2022/10/09 08:13:52;;;;;;;5.87;2.17;;;9.30;99.90;;;;;;6209405;23;20274;-79
2022/10/09 08:16:19;;;;;;;6.33;2.23;;;9.40;99.90;;;;;;6210291;23;20157;-80
2022/10/09 08:18:45;;;;;;;5.37;2.60;;;9.50;99.90;;;;;;6209204;23;20151;-80
2022/10/09 08:21:13;;;;;;;4.23;2.07;;;9.60;79.10;;;;;;6209267;23;20142;-79
2022/10/09 08:23:39;;;;;;;4.47;1.50;;;9.70;72.10;;;;;;6178207;23;20190;-79
2022/10/09 08:26:16;;;;;;;7.70;1.70;;;9.80;46.00;;;;;;6208675;23;20155;-82
2022/10/09 08:28:42;;;;;;;5.23;1.90;;;9.90;12.10;;;;;;6212050;23;20139;-79
2022/10/09 08:31:16;;;;;;;6.00;1.80;;;10.10;11.10;;;;;;6184849;23;20240;-81
2022/10/09 08:33:42;;;;;;;5.73;1.80;;;10.10;1.00;;;;;;6210483;23;20177;-79
2022/10/09 08:36:09;;;;;;;9.53;2.40;;;10.30;1.00;;;;;;6209718;23;20599;-79
2022/10/09 08:38:36;;;;;;;6.23;2.33;;;10.30;1.00;;;;;;6208638;23;20208;-80
2022/10/09 08:41:07;;;;;;;6.23;1.50;;;10.50;1.00;;;;;;6181317;23;20193;-80
2022/10/09 08:43:42;;;;;;;4.47;1.63;;;10.70;1.00;;;;;;6208510;23;20182;-79
2022/10/09 08:46:33;;;;;;;4.53;1.57;;;10.60;1.00;;;;;;6185316;23;20185;-81
2022/10/09 08:49:01;;;;;;;5.63;1.60;;;10.80;1.00;;;;;;6212296;23;20183;-82
2022/10/09 08:51:31;;;;;;;5.73;1.67;;;10.90;1.00;;;;;;6180427;23;20174;-80
2022/10/09 08:54:18;;;;;;;7.23;1.90;;;11.00;1.00;;;;;;6179833;23;20175;-80
2022/10/09 08:56:46;;;;;;;7.35;2.00;;;11.10;1.00;;;;;;6179496;23;20150;-81
2022/10/09 08:59:12;;;;;;;4.33;1.57;;;11.20;1.00;;;;;;6206149;23;20181;-80
2022/10/09 09:01:47;;;;;;;3.60;1.45;;;11.30;1.00;;;;;;6181169;23;20158;-80
2022/10/09 09:04:45;;;;;;;3.47;1.40;;;11.40;1.00;;;;;;6181042;23;20185;-80
2022/10/09 09:07:29;;;;;;;6.93;1.60;;;11.50;1.00;;;;;;6182658;23;20173;-80
2022/10/09 09:10:32;;;;;;;6.47;1.60;;;11.60;1.00;;;;;;6208104;23;20577;-80
2022/10/09 09:13:01;;;;;;;8.25;3.00;;;11.70;1.00;;;;;;6207513;23;20513;-80
2022/10/09 09:15:57;;;;;;;8.82;2.50;;;11.80;1.00;;;;;;6207045;23;20229;-80
2022/10/09 09:18:40;;;;;;;4.40;1.60;;;11.90;1.00;;;;;;6181388;23;20146;-80
2022/10/09 09:21:15;;;;;;;10.40;4.68;;;12.00;1.00;;;;;;6181354;23;20170;-80
2022/10/09 09:23:45;;;;;;;13.93;5.10;;;12.10;1.00;;;;;;6181334;23;20220;-80
2022/10/09 09:26:20;;;;;;;7.55;2.70;;;12.10;1.00;;;;;;6206788;23;20236;-81
2022/10/09 09:28:51;;;;;;;3.88;1.73;;;12.20;1.00;;;;;;6179536;23;20185;-82
2022/10/09 09:31:22;;;;;;;7.75;1.95;;;12.30;1.00;;;;;;6179860;23;20178;-81
2022/10/09 09:33:51;;;;;;;7.43;1.73;;;12.50;1.00;;;;;;6180675;23;20233;-80
2022/10/09 09:36:29;;;;;;;8.10;2.05;;;12.50;1.00;;;;;;6180942;23;20190;-80
2022/10/09 09:38:55;;;;;;;7.60;2.03;;;12.60;1.00;;;;;;6207707;23;20184;-80
2022/10/09 09:41:20;;;;;;;5.65;1.90;;;12.60;1.00;;;;;;6181308;23;20174;-80
2022/10/09 09:43:46;;;;;;;3.92;1.63;;;12.70;1.00;;;;;;6181046;23;20189;-80
2022/10/09 09:46:21;;;;;;;6.22;3.30;;;12.70;1.00;;;;;;6207847;23;20151;-80
2022/10/09 09:48:48;;;;;;;7.82;1.92;;;12.80;1.00;;;;;;6181247;23;20293;-80
2022/10/09 09:51:30;;;;;;;7.68;1.40;;;12.80;1.00;;;;;;6207488;23;20174;-79
2022/10/09 09:53:56;;;;;;;6.95;1.77;;;13.00;1.00;;;;;;6208159;23;20177;-79
2022/10/09 09:56:40;;;;;;;5.13;1.45;;;13.20;1.00;;;;;;6180908;23;20601;-80
2022/10/09 09:59:07;;;;;;;6.72;1.70;;;13.20;1.00;;;;;;6185011;23;20165;-79
2022/10/09 10:01:34;;;;;;;6.30;1.20;;;13.20;1.00;;;;;;6212476;23;21045;-79
2022/10/09 10:04:02;;;;;;;6.47;1.38;;;13.20;1.00;;;;;;6183042;23;20193;-77
2022/10/09 10:06:54;;;;;;;3.55;1.30;;;13.40;1.00;;;;;;6210394;23;20639;-77
2022/10/09 10:09:20;;;;;;;5.60;1.83;;;13.40;1.00;;;;;;6203782;23;20177;-78
2022/10/09 10:11:55;;;;;;;3.40;0.93;;;13.40;1.00;;;;;;6209651;23;20190;-80
2022/10/09 10:14:21;;;;;;;5.60;1.48;;;13.40;1.00;;;;;;6210395;23;20437;-80
2022/10/09 10:16:51;;;;;;;6.57;1.50;;;13.50;1.00;;;;;;6210825;23;20159;-78
2022/10/09 10:19:26;;;;;;;6.88;1.50;;;13.60;1.00;;;;;;6207163;23;20164;-80
2022/10/09 10:21:56;;;;;;;3.72;1.10;;;13.70;1.00;;;;;;6181542;23;20177;-78
2022/10/09 10:24:28;;;;;;;2.92;0.93;;;13.50;1.00;;;;;;6209740;23;20217;-78
2022/10/09 10:27:06;;;;;;;3.95;0.98;;;13.70;1.00;;;;;;6182237;23;20181;-78
2022/10/09 10:29:35;;;;;;;4.57;1.10;;;13.90;1.00;;;;;;6208818;23;20162;-78
2022/10/09 10:32:16;;;;;;;4.43;1.35;;;14.00;1.00;;;;;;6208886;23;20399;-80
2022/10/09 10:35:16;;;;;;;5.60;1.20;;;14.10;1.00;;;;;;6182236;23;20237;-79
2022/10/09 10:38:06;;;;;;;5.63;1.50;;;14.10;1.00;;;;;;6181142;23;20186;-77
2022/10/09 10:40:56;;;;;;;7.53;1.88;;;14.20;1.00;;;;;;6207174;23;20166;-79
2022/10/09 10:43:24;;;;;;;4.72;1.17;;;14.10;1.00;;;;;;6124007;23;20721;-77
2022/10/09 10:46:11;;;;;;;5.50;1.27;;;14.20;1.00;;;;;;6178445;23;20182;-80
2022/10/09 10:48:46;;;;;;;4.30;1.58;;;14.20;1.00;;;;;;6203152;23;20169;-78
2022/10/09 10:51:49;;;;;;;5.57;1.63;;;14.30;1.00;;;;;;6175948;23;20276;-78
2022/10/09 10:54:38;;;;;;;4.22;0.90;;;14.30;1.00;;;;;;6203743;23;20169;-78
2022/10/09 10:57:13;;;;;;;5.50;1.30;;;14.40;1.00;;;;;;6203513;23;20147;-78
2022/10/09 11:00:04;;;;;;;7.07;1.38;;;14.30;1.00;;;;;;6203869;23;20486;-77
2022/10/09 11:02:51;;;;;;;3.60;1.25;;;14.40;1.00;;;;;;6176311;23;20600;-80
2022/10/09 11:05:25;;;;;;;5.00;1.35;;;14.50;1.00;;;;;;6176375;23;20154;-78
2022/10/09 11:08:14;;;;;;;6.40;2.00;;;14.70;1.00;;;;;;6203786;23;20154;-78
2022/10/09 11:10:47;;;;;;;5.68;1.20;;;14.70;1.00;;;;;;6177163;23;20803;-79
2022/10/09 11:13:45;;;;;;;6.35;1.55;;;14.80;1.00;;;;;;6203179;23;20236;-79
2022/10/09 11:16:38;;;;;;;5.82;1.55;;;14.90;1.00;;;;;;6204381;23;20143;-79
2022/10/09 11:19:22;;;;;;;4.85;1.10;;;15.00;1.00;;;;;;6174662;23;20608;-78
2022/10/09 11:22:23;;;;;;;3.63;1.00;;;15.10;1.00;;;;;;6177147;23;20162;-78
2022/10/09 11:25:13;;;;;;;3.33;0.80;;;15.10;1.00;;;;;;6202968;23;20695;-80
2022/10/09 11:27:50;;;;;;;4.80;1.38;;;15.00;1.00;;;;;;6177440;23;20146;-80
2022/10/09 11:30:17;;;;;;;3.10;1.00;;;15.10;1.00;;;;;;6204133;23;20170;-80
2022/10/09 11:32:54;;;;;;;3.05;1.27;;;15.20;1.00;;;;;;6180479;23;20178;-77
2022/10/09 11:35:22;;;;;;;3.38;1.20;;;15.30;1.00;;;;;;6206109;23;20145;-77
2022/10/09 11:38:03;;;;;;;4.60;1.20;;;15.40;1.00;;;;;;6206460;23;20204;-79
2022/10/09 11:40:37;;;;;;;5.63;1.10;;;15.50;1.00;;;;;;6209979;23;20154;-80
2022/10/09 11:43:14;;;;;;;3.42;1.05;;;15.60;1.00;;;;;;6204119;23;20178;-79
2022/10/09 11:46:08;;;;;;;2.92;0.80;;;15.70;1.00;;;;;;6204542;23;20146;-79
2022/10/09 11:48:37;;;;;;;4.03;1.15;;;15.60;1.00;;;;;;6176353;23;20832;-81
2022/10/09 11:51:11;;;;;;;5.80;1.05;;;15.70;1.00;;;;;;6175550;23;20213;-80
2022/10/09 11:53:38;;;;;;;3.95;1.02;;;15.80;1.00;;;;;;6175311;23;20545;-80
2022/10/09 11:56:20;;;;;;;5.43;0.93;;;15.80;1.00;;;;;;6177338;23;20245;-78
2022/10/09 11:59:05;;;;;;;3.58;0.88;;;15.80;1.00;;;;;;6203999;23;20579;-80
2022/10/09 12:01:31;;;;;;;3.05;1.13;;;15.70;1.00;;;;;;6204438;23;20225;-78
2022/10/09 12:04:02;;;;;;;3.97;0.98;;;15.80;1.00;;;;;;6203022;23;20546;-79
2022/10/09 12:06:28;;;;;;;5.35;1.45;;;15.80;1.00;;;;;;6175668;23;20166;-79
2022/10/09 12:08:59;;;;;;;6.82;1.13;;;15.70;1.00;;;;;;6203249;23;20155;-78
2022/10/09 12:11:25;;;;;;;3.13;1.00;;;15.80;1.00;;;;;;6180889;23;20297;-79
2022/10/09 12:13:57;;;;;;;4.07;1.48;;;15.70;1.00;;;;;;6202897;23;20257;-78
2022/10/09 12:16:37;;;;;;;2.80;1.10;;;15.80;1.00;;;;;;6202427;23;20599;-80
2022/10/09 12:19:16;;;;;;;3.15;1.08;;;15.80;1.00;;;;;;6202065;23;20233;-79
2022/10/09 12:21:56;;;;;;;4.75;1.02;;;15.80;1.00;;;;;;6203029;23;20301;-80
2022/10/09 12:24:26;;;;;;;7.05;1.23;;;16.10;1.00;;;;;;6203994;23;20510;-79
2022/10/09 12:26:54;;;;;;;3.08;1.20;;;16.10;1.00;;;;;;6203971;23;20602;-79
2022/10/09 12:29:30;;;;;;;5.88;2.42;;;16.10;1.00;;;;;;6204547;23;20197;-79
2022/10/09 12:32:00;;;;;;;3.15;1.30;;;16.10;1.00;;;;;;6204293;23;20249;-79
2022/10/09 12:34:48;;;;;;;6.80;1.30;;;16.00;1.00;;;;;;6203244;23;20225;-79
2022/10/09 12:37:20;;;;;;;4.00;1.17;;;16.00;1.00;;;;;;6209071;23;20177;-78
2022/10/09 12:39:48;;;;;;;4.00;1.05;;;16.10;1.00;;;;;;6209072;23;20465;-79
2022/10/09 12:42:23;;;;;;;4.25;1.08;;;16.10;1.00;;;;;;6208867;23;20161;-80
2022/10/09 12:44:52;;;;;;;4.07;1.10;;;16.00;1.00;;;;;;6208598;23;20185;-79
2022/10/09 12:47:25;;;;;;;4.70;1.65;;;16.20;1.00;;;;;;6208371;23;20154;-79
2022/10/09 12:50:16;;;;;;;2.13;1.15;;;16.20;1.00;;;;;;6209051;23;20241;-78
2022/10/09 12:52:51;;;;;;;2.45;0.80;;;16.30;1.00;;;;;;6211088;23;20220;-79
2022/10/09 12:55:27;;;;;;;3.38;1.00;;;16.40;1.00;;;;;;6208758;23;20189;-79
2022/10/09 12:58:03;;;;;;;2.50;0.90;;;16.40;1.00;;;;;;6211185;23;20200;-79
2022/10/09 13:00:31;;;;;;;3.25;0.93;;;16.30;1.00;;;;;;6210518;23;20517;-80
2022/10/09 13:02:56;;;;;;;2.38;0.90;;;16.40;1.00;;;;;;6208914;23;20182;-79
2022/10/09 13:05:22;;;;;;;2.10;0.85;;;16.40;1.00;;;;;;6211177;23;20155;-79
2022/10/09 13:07:54;;;;;;;2.25;0.70;;;16.50;1.00;;;;;;6211420;23;20182;-79
2022/10/09 13:10:22;;;;;;;2.45;0.70;;;16.50;1.00;;;;;;6211341;23;20209;-79
2022/10/09 13:12:54;;;;;;;2.90;1.00;;;16.30;1.00;;;;;;6210072;23;20189;-79
2022/10/09 13:15:37;;;;;;;2.00;0.85;;;16.20;1.00;;;;;;6210232;23;20185;-80
2022/10/09 13:18:20;;;;;;;2.90;1.02;;;16.00;1.00;;;;;;6211928;23;20345;-78
2022/10/09 13:20:58;;;;;;;2.72;0.68;;;16.10;1.00;;;;;;6185249;23;20617;-79